Time;durP1;ratioP1;P1;durP2;ratioP2;P2;SDS_P1;SDS_P2;PMS_P1;PMS_P2;Temp;Humidity;BMP_temperature;BMP_pressure;BME280_temperature;BME280_humidity;BME280_pressure;Samples;Min_cycle;Max_cycle;Signal;HPM_P1;HPM_P2
2022/05/31 00:00:30;;;;;;;6.32;4.10;;;12.20;99.90;;;;;;2085402;28;20021;-71
2022/05/31 00:01:31;;;;;;;7.30;4.28;;;12.20;99.90;;;;;;2083165;28;20021;-71
2022/05/31 00:02:32;;;;;;;4.90;3.70;;;12.20;99.90;;;;;;2083743;28;20029;-71
2022/05/31 00:03:33;;;;;;;5.63;4.00;;;12.20;99.90;;;;;;2082892;28;20021;-71
2022/05/31 00:04:34;;;;;;;7.88;4.03;;;12.20;99.90;;;;;;2083033;28;20049;-71
2022/05/31 00:05:35;;;;;;;8.93;4.65;;;12.20;99.90;;;;;;2085478;28;20025;-71
2022/05/31 00:06:36;;;;;;;7.82;4.47;;;12.20;99.90;;;;;;2084657;28;20076;-71
2022/05/31 00:07:37;;;;;;;5.53;3.60;;;12.20;99.90;;;;;;2081983;28;20060;-71
2022/05/31 00:08:37;;;;;;;5.35;4.05;;;12.20;99.90;;;;;;2084802;28;20101;-71
2022/05/31 00:09:38;;;;;;;5.78;4.30;;;12.20;99.90;;;;;;2084683;28;20033;-71
2022/05/31 00:10:38;;;;;;;7.00;4.75;;;12.20;99.90;;;;;;2085272;28;20029;-71
2022/05/31 00:11:41;;;;;;;5.93;3.90;;;12.30;99.90;;;;;;2081249;28;20029;-71
2022/05/31 00:12:42;;;;;;;9.65;4.60;;;12.20;99.90;;;;;;2082934;28;20018;-71
2022/05/31 00:13:43;;;;;;;7.38;4.28;;;12.20;99.90;;;;;;2083344;28;20049;-71
2022/05/31 00:14:44;;;;;;;7.57;3.83;;;12.30;99.90;;;;;;2080217;28;20031;-71
2022/05/31 00:15:44;;;;;;;5.50;4.32;;;12.20;99.90;;;;;;2082278;28;20032;-71
2022/05/31 00:16:47;;;;;;;6.45;4.00;;;12.20;99.90;;;;;;2083134;28;20021;-71
2022/05/31 00:17:47;;;;;;;6.53;4.20;;;12.30;99.90;;;;;;2081456;28;20021;-71
2022/05/31 00:18:48;;;;;;;6.88;4.53;;;12.20;99.90;;;;;;2082736;28;20029;-71
2022/05/31 00:19:49;;;;;;;4.85;4.35;;;12.20;99.90;;;;;;2080803;28;20032;-71
2022/05/31 00:20:49;;;;;;;6.43;4.50;;;12.20;99.90;;;;;;2082428;28;20059;-71
2022/05/31 00:21:57;;;;;;;7.07;4.47;;;12.30;99.90;;;;;;2085424;28;20026;-71
2022/05/31 00:22:57;;;;;;;7.28;4.40;;;12.30;99.90;;;;;;2089124;28;20057;-71
2022/05/31 00:23:58;;;;;;;5.95;3.60;;;12.30;99.90;;;;;;2086093;28;20032;-71
2022/05/31 00:24:59;;;;;;;4.43;4.00;;;12.30;99.90;;;;;;2086939;28;20021;-71
2022/05/31 00:25:59;;;;;;;9.05;4.22;;;12.30;99.90;;;;;;2083951;28;20057;-71
2022/05/31 00:27:01;;;;;;;6.05;4.20;;;12.30;99.90;;;;;;2084555;28;20651;-71
2022/05/31 00:28:02;;;;;;;6.68;4.20;;;12.30;99.90;;;;;;2084406;28;20040;-71
2022/05/31 00:29:03;;;;;;;5.57;3.92;;;12.30;99.90;;;;;;2085819;28;20548;-71
2022/05/31 00:30:05;;;;;;;6.28;4.80;;;12.30;99.90;;;;;;2085460;28;20100;-71
2022/05/31 00:31:07;;;;;;;6.78;4.32;;;12.30;99.90;;;;;;2084700;28;20120;-71
2022/05/31 00:32:11;;;;;;;6.53;4.40;;;12.30;99.90;;;;;;2087124;28;20029;-71
2022/05/31 00:33:11;;;;;;;5.50;3.90;;;12.30;99.90;;;;;;2087579;28;20022;-71
2022/05/31 00:34:12;;;;;;;5.53;3.95;;;12.30;99.90;;;;;;2089978;28;20055;-71
2022/05/31 00:35:16;;;;;;;6.65;4.00;;;12.30;99.90;;;;;;2084910;28;20022;-71
2022/05/31 00:36:17;;;;;;;5.30;3.90;;;12.40;99.90;;;;;;2084980;28;20434;-71
2022/05/31 00:37:18;;;;;;;8.75;4.32;;;12.30;99.90;;;;;;2084696;28;20105;-71
2022/05/31 00:38:20;;;;;;;8.73;3.95;;;12.40;99.90;;;;;;2082365;28;20104;-71
2022/05/31 00:39:20;;;;;;;4.10;3.70;;;12.30;99.90;;;;;;2087612;28;20030;-71
2022/05/31 00:40:25;;;;;;;6.18;3.97;;;12.30;99.90;;;;;;2084428;28;20032;-71
2022/05/31 00:41:26;;;;;;;8.25;4.53;;;12.30;99.90;;;;;;2082107;28;20025;-71
2022/05/31 00:42:26;;;;;;;6.90;4.53;;;12.30;99.90;;;;;;2084015;28;20028;-71
2022/05/31 00:43:27;;;;;;;6.63;4.63;;;12.30;99.90;;;;;;2082404;28;20021;-71
2022/05/31 00:44:29;;;;;;;8.35;4.60;;;12.30;99.90;;;;;;2084497;28;20443;-71
2022/05/31 00:45:52;;;;;;;8.15;4.38;;;12.30;99.90;;;;;;2081008;28;20067;-71
2022/05/31 00:47:00;;;;;;;6.72;4.85;;;12.30;99.90;;;;;;2085701;28;20020;-71
2022/05/31 00:48:02;;;;;;;6.43;4.88;;;12.20;99.90;;;;;;2086148;28;20025;-71
2022/05/31 00:49:05;;;;;;;6.30;4.68;;;12.20;99.90;;;;;;2082219;28;20099;-71
2022/05/31 00:50:27;;;;;;;8.05;5.00;;;12.10;99.90;;;;;;2082276;28;20516;-71
2022/05/31 00:51:46;;;;;;;6.03;4.70;;;12.20;99.90;;;;;;2082290;28;20057;-71
2022/05/31 00:52:48;;;;;;;6.93;4.57;;;12.10;99.90;;;;;;2084080;28;20022;-71
2022/05/31 00:53:58;;;;;;;7.97;5.20;;;12.10;99.90;;;;;;2082194;28;20017;-71
2022/05/31 00:55:05;;;;;;;6.07;4.60;;;12.00;99.90;;;;;;2083407;28;20117;-71
2022/05/31 00:56:12;;;;;;;7.53;4.72;;;12.00;99.90;;;;;;2086205;28;20035;-71
2022/05/31 00:57:13;;;;;;;6.28;4.60;;;12.00;99.90;;;;;;2085844;28;20017;-71
2022/05/31 00:58:38;;;;;;;10.88;5.30;;;12.00;99.90;;;;;;2083852;28;20108;-71
2022/05/31 00:59:45;;;;;;;7.28;5.47;;;11.90;99.90;;;;;;2085444;28;20079;-71
2022/05/31 01:00:46;;;;;;;6.78;5.10;;;11.90;99.90;;;;;;2088463;28;20024;-70
2022/05/31 01:01:51;;;;;;;7.40;4.53;;;11.90;99.90;;;;;;2083964;28;20108;-71
2022/05/31 01:02:52;;;;;;;9.15;5.10;;;11.90;99.90;;;;;;2087360;28;20041;-71
2022/05/31 01:03:54;;;;;;;6.25;4.25;;;11.90;99.90;;;;;;2084129;28;20056;-71
2022/05/31 01:04:58;;;;;;;7.47;4.80;;;11.90;99.90;;;;;;2086021;28;20078;-70
2022/05/31 01:05:59;;;;;;;4.55;4.15;;;11.90;99.90;;;;;;2083945;28;20041;-71
2022/05/31 01:07:00;;;;;;;5.28;4.38;;;11.90;99.90;;;;;;2083172;28;20097;-71
2022/05/31 01:08:01;;;;;;;7.05;4.32;;;11.90;99.90;;;;;;2081712;28;20461;-71
2022/05/31 01:09:02;;;;;;;10.20;5.38;;;11.90;99.90;;;;;;2082487;28;20053;-71
2022/05/31 01:10:05;;;;;;;5.25;4.65;;;11.90;99.90;;;;;;2081420;28;20029;-71
2022/05/31 01:11:06;;;;;;;8.77;5.18;;;11.90;99.90;;;;;;2085859;28;20128;-71
2022/05/31 01:12:07;;;;;;;5.82;5.10;;;11.90;99.90;;;;;;2084264;28;20017;-71
2022/05/31 01:13:10;;;;;;;7.65;4.57;;;11.90;99.90;;;;;;2083397;28;20029;-71
2022/05/31 01:14:11;;;;;;;8.52;4.95;;;11.90;99.90;;;;;;2084932;28;20427;-71
2022/05/31 01:15:13;;;;;;;7.68;5.10;;;11.90;99.90;;;;;;2082641;28;20025;-71
2022/05/31 01:16:15;;;;;;;5.60;5.00;;;11.90;99.90;;;;;;2083199;28;20048;-71
2022/05/31 01:17:19;;;;;;;9.75;5.10;;;11.80;99.90;;;;;;2082089;28;20074;-71
2022/05/31 01:18:20;;;;;;;8.07;5.40;;;11.80;99.90;;;;;;2082437;28;20025;-71
2022/05/31 01:20:40;;;;;;;6.82;5.28;;;11.80;99.90;;;;;;2085863;28;20053;-71
2022/05/31 01:21:41;;;;;;;7.60;5.18;;;11.80;99.90;;;;;;2083525;28;20017;-71
2022/05/31 01:22:49;;;;;;;4.25;3.85;;;11.80;99.90;;;;;;2081162;28;20022;-71
2022/05/31 01:24:06;;;;;;;6.20;4.25;;;11.80;99.90;;;;;;2086661;28;20025;-71
2022/05/31 01:25:07;;;;;;;6.00;4.22;;;11.80;99.90;;;;;;2084166;28;20037;-71
2022/05/31 01:26:42;;;;;;;7.28;4.85;;;11.80;99.90;;;;;;2081524;28;20497;-71
2022/05/31 01:28:24;;;;;;;4.60;4.15;;;11.70;99.90;;;;;;2077974;28;20037;-71
2022/05/31 01:29:34;;;;;;;6.10;3.95;;;11.70;99.90;;;;;;2084313;28;20109;-71
2022/05/31 01:30:42;;;;;;;9.27;4.80;;;11.70;99.90;;;;;;2085504;28;20100;-72
2022/05/31 01:31:54;;;;;;;5.88;4.95;;;11.70;99.90;;;;;;2082821;28;20112;-71
2022/05/31 01:33:04;;;;;;;6.32;4.47;;;11.70;99.90;;;;;;2083721;28;20540;-71
2022/05/31 01:34:42;;;;;;;6.97;4.53;;;11.70;99.90;;;;;;2081202;28;20061;-71
2022/05/31 01:35:43;;;;;;;4.70;4.03;;;11.70;99.90;;;;;;2085102;28;20029;-71
2022/05/31 01:36:48;;;;;;;6.20;4.80;;;11.70;99.90;;;;;;2084634;28;20048;-71
2022/05/31 01:37:53;;;;;;;5.15;4.50;;;11.70;99.90;;;;;;2084262;28;20376;-71
2022/05/31 01:39:04;;;;;;;6.65;4.43;;;11.70;99.90;;;;;;2083087;28;20063;-71
2022/05/31 01:40:10;;;;;;;4.57;4.15;;;11.70;99.90;;;;;;2082903;28;20074;-71
2022/05/31 01:41:32;;;;;;;6.25;4.93;;;11.70;99.90;;;;;;2085038;28;20009;-71
2022/05/31 01:42:40;;;;;;;8.25;4.60;;;11.60;99.90;;;;;;2082987;28;20049;-71
2022/05/31 01:43:43;;;;;;;5.60;4.78;;;11.60;99.90;;;;;;2084258;28;20504;-72
2022/05/31 01:44:48;;;;;;;4.72;3.97;;;11.60;99.90;;;;;;2086756;28;20032;-71
2022/05/31 01:45:58;;;;;;;5.05;4.15;;;11.60;99.90;;;;;;2085317;28;20013;-71
2022/05/31 01:47:00;;;;;;;7.57;4.80;;;11.60;99.90;;;;;;2083083;28;20112;-71
2022/05/31 01:48:04;;;;;;;6.97;4.30;;;11.60;99.90;;;;;;2088303;28;20145;-71
2022/05/31 01:49:08;;;;;;;5.95;4.20;;;11.60;99.90;;;;;;2084004;28;20087;-71
2022/05/31 01:50:12;;;;;;;5.35;4.80;;;11.60;99.90;;;;;;2084564;28;20020;-71
2022/05/31 01:51:13;;;;;;;4.90;4.30;;;11.60;99.90;;;;;;2083190;28;20030;-71
2022/05/31 01:52:14;;;;;;;6.80;5.10;;;11.60;99.90;;;;;;2086627;28;20103;-71
2022/05/31 01:53:16;;;;;;;8.30;5.05;;;11.60;99.90;;;;;;2080544;28;20025;-71
2022/05/31 01:54:18;;;;;;;6.30;4.55;;;11.60;99.90;;;;;;2080170;28;20018;-71
2022/05/31 01:55:19;;;;;;;5.70;4.85;;;11.60;99.90;;;;;;2080854;28;20021;-71
2022/05/31 01:56:20;;;;;;;6.97;4.75;;;11.60;99.90;;;;;;2084353;28;20147;-71
2022/05/31 01:57:23;;;;;;;5.32;4.10;;;11.50;99.90;;;;;;2084596;28;20124;-71
2022/05/31 01:58:27;;;;;;;5.93;5.00;;;11.50;99.90;;;;;;2087483;28;20028;-71
2022/05/31 01:59:39;;;;;;;5.65;4.63;;;11.60;99.90;;;;;;2083712;28;20024;-71
2022/05/31 02:00:40;;;;;;;5.20;4.10;;;11.50;99.90;;;;;;2088248;28;20096;-71
2022/05/31 02:01:42;;;;;;;5.50;4.15;;;11.50;99.90;;;;;;2089537;28;20025;-71
2022/05/31 02:02:47;;;;;;;4.72;3.65;;;11.50;99.90;;;;;;2083385;28;20090;-71
2022/05/31 02:03:47;;;;;;;6.72;4.25;;;11.50;99.90;;;;;;2081794;28;20024;-71
2022/05/31 02:04:48;;;;;;;5.55;4.57;;;11.50;99.90;;;;;;2081148;28;20018;-71
2022/05/31 02:05:52;;;;;;;4.85;4.38;;;11.50;99.90;;;;;;2085130;28;20025;-71
2022/05/31 02:07:10;;;;;;;4.82;4.35;;;11.50;99.90;;;;;;2085038;28;20491;-71
2022/05/31 02:08:11;;;;;;;7.43;4.53;;;11.50;99.90;;;;;;2087074;28;20065;-71
2022/05/31 02:09:14;;;;;;;5.38;4.13;;;11.50;99.90;;;;;;2084100;28;20071;-71
2022/05/31 02:10:15;;;;;;;7.50;4.25;;;11.40;99.90;;;;;;2084103;28;20052;-71
2022/05/31 02:11:15;;;;;;;6.25;5.15;;;11.40;99.90;;;;;;2081517;28;20021;-72
2022/05/31 02:12:18;;;;;;;5.43;4.05;;;11.40;99.90;;;;;;2081529;28;20025;-71
2022/05/31 02:13:18;;;;;;;5.72;4.22;;;11.40;99.90;;;;;;2082704;28;20033;-71
2022/05/31 02:14:19;;;;;;;8.32;5.20;;;11.50;99.90;;;;;;2085160;28;20036;-71
2022/05/31 02:15:21;;;;;;;8.88;4.93;;;11.40;99.90;;;;;;2080708;28;20029;-71
2022/05/31 02:16:21;;;;;;;5.90;4.95;;;11.40;99.90;;;;;;2084043;28;20033;-71
2022/05/31 02:17:22;;;;;;;6.65;5.78;;;11.40;99.90;;;;;;2082999;28;20500;-71
2022/05/31 02:19:15;;;;;;;6.35;4.90;;;11.40;99.90;;;;;;2081622;28;20024;-71
2022/05/31 02:19:43;;;;;;;;;;;11.40;99.90;;;;;;2081771;28;20029;-71
2022/05/31 02:20:44;;;;;;;8.55;4.60;;;11.40;99.90;;;;;;2082736;28;20432;-71
2022/05/31 02:21:44;;;;;;;8.73;5.35;;;11.30;99.90;;;;;;2085030;28;20024;-71
2022/05/31 02:22:45;;;;;;;5.57;4.43;;;11.30;99.90;;;;;;2081535;28;20052;-71
2022/05/31 02:23:45;;;;;;;7.18;5.07;;;11.30;99.90;;;;;;2085312;28;20038;-71
2022/05/31 02:24:46;;;;;;;6.03;5.43;;;11.30;99.90;;;;;;2084701;28;20431;-71
2022/05/31 02:25:46;;;;;;;5.40;4.53;;;11.30;99.90;;;;;;2083997;28;20466;-71
2022/05/31 02:26:47;;;;;;;6.30;4.15;;;11.30;99.90;;;;;;2082327;28;20461;-71
2022/05/31 02:27:47;;;;;;;8.25;5.90;;;11.30;99.90;;;;;;2083421;28;20833;-71
2022/05/31 02:28:48;;;;;;;6.55;5.07;;;11.30;99.90;;;;;;2081041;28;20017;-71
2022/05/31 02:29:48;;;;;;;4.68;4.22;;;11.40;99.90;;;;;;2084677;28;20025;-71
2022/05/31 02:30:49;;;;;;;4.25;3.85;;;11.30;99.90;;;;;;2084394;28;20040;-71
2022/05/31 02:31:49;;;;;;;6.70;4.70;;;11.30;99.90;;;;;;2082557;28;20104;-71
2022/05/31 02:32:50;;;;;;;8.63;4.70;;;11.30;99.90;;;;;;2083128;28;20025;-71
2022/05/31 02:33:50;;;;;;;7.32;4.30;;;11.40;99.90;;;;;;2082581;28;20441;-71
2022/05/31 02:34:52;;;;;;;5.03;4.55;;;11.30;99.90;;;;;;2079657;28;20116;-71
2022/05/31 02:35:52;;;;;;;4.43;4.00;;;11.40;99.90;;;;;;2080451;28;20100;-72
2022/05/31 02:36:53;;;;;;;5.63;4.63;;;11.30;99.90;;;;;;2079974;28;20084;-71
2022/05/31 02:37:55;;;;;;;6.57;4.85;;;11.30;99.90;;;;;;2086586;28;20260;-71
2022/05/31 02:38:56;;;;;;;7.13;4.90;;;11.30;99.90;;;;;;2084643;28;20052;-71
2022/05/31 02:39:57;;;;;;;4.63;4.22;;;11.30;99.90;;;;;;2084368;28;20026;-71
2022/05/31 02:40:57;;;;;;;8.18;4.35;;;11.30;99.90;;;;;;2085168;28;20120;-71
2022/05/31 02:41:58;;;;;;;5.13;4.38;;;11.30;99.90;;;;;;2086222;28;20043;-71
2022/05/31 02:42:59;;;;;;;5.18;4.25;;;11.30;99.90;;;;;;2080690;28;20029;-71
2022/05/31 02:44:00;;;;;;;4.97;4.25;;;11.30;99.90;;;;;;2085360;28;20025;-71
2022/05/31 02:45:00;;;;;;;5.20;3.95;;;11.30;99.90;;;;;;2081316;28;20033;-71
2022/05/31 02:46:03;;;;;;;5.57;4.22;;;11.30;99.90;;;;;;2086491;28;20057;-71
2022/05/31 02:47:05;;;;;;;7.72;4.72;;;11.30;99.90;;;;;;2089337;28;20031;-72
2022/05/31 02:48:06;;;;;;;6.93;4.45;;;11.30;99.90;;;;;;2086792;28;20504;-71
2022/05/31 02:49:07;;;;;;;5.82;4.15;;;11.30;99.90;;;;;;2082873;28;20024;-71
2022/05/31 02:50:08;;;;;;;6.70;4.78;;;11.30;99.90;;;;;;2081945;28;20021;-71
2022/05/31 02:51:09;;;;;;;4.82;4.25;;;11.30;99.90;;;;;;2073919;28;20022;-71
2022/05/31 02:52:10;;;;;;;4.75;4.15;;;11.30;99.90;;;;;;2082180;28;20550;-71
2022/05/31 02:53:10;;;;;;;6.18;4.57;;;11.30;99.90;;;;;;2080563;28;20118;-71
2022/05/31 02:54:14;;;;;;;5.47;4.68;;;11.30;99.90;;;;;;2084775;28;20048;-71
2022/05/31 02:55:15;;;;;;;6.88;4.45;;;11.30;99.90;;;;;;2089746;28;20048;-71
2022/05/31 02:56:15;;;;;;;5.22;4.25;;;11.30;99.90;;;;;;2083099;28;20027;-71
2022/05/31 02:57:16;;;;;;;5.93;4.47;;;11.30;99.90;;;;;;2085500;28;20058;-71
2022/05/31 02:58:16;;;;;;;7.82;4.68;;;11.30;99.90;;;;;;2083093;28;20026;-71
2022/05/31 02:59:17;;;;;;;6.47;4.50;;;11.30;99.90;;;;;;2082982;28;20026;-71
2022/05/31 03:00:17;;;;;;;5.75;4.57;;;11.30;99.90;;;;;;2081504;28;20025;-71
2022/05/31 03:01:24;;;;;;;6.38;4.53;;;11.30;99.90;;;;;;2080243;28;20060;-71
2022/05/31 03:02:24;;;;;;;4.93;4.45;;;11.20;99.90;;;;;;2081464;28;20030;-71
2022/05/31 03:03:26;;;;;;;5.97;4.75;;;11.20;99.90;;;;;;2083398;28;20025;-71
2022/05/31 03:04:26;;;;;;;5.30;4.22;;;11.20;99.90;;;;;;2081973;28;20100;-71
2022/05/31 03:05:27;;;;;;;6.82;4.47;;;11.30;99.90;;;;;;2083718;28;20029;-71
2022/05/31 03:06:27;;;;;;;4.63;4.13;;;11.30;99.90;;;;;;2086591;28;20500;-71
2022/05/31 03:07:28;;;;;;;7.18;4.78;;;11.20;99.90;;;;;;2080973;28;20106;-71
2022/05/31 03:08:28;;;;;;;8.52;4.75;;;11.30;99.90;;;;;;2080164;28;20030;-71
2022/05/31 03:09:30;;;;;;;5.50;4.38;;;11.30;99.90;;;;;;2081000;28;20377;-71
2022/05/31 03:10:35;;;;;;;6.22;4.97;;;11.20;99.90;;;;;;2083633;28;20112;-71
2022/05/31 03:11:54;;;;;;;8.70;4.85;;;11.30;99.90;;;;;;2083970;28;20817;-71
2022/05/31 03:12:55;;;;;;;6.63;4.90;;;11.30;99.90;;;;;;2083213;28;20068;-71
2022/05/31 03:14:05;;;;;;;8.95;5.10;;;11.20;99.90;;;;;;2081081;28;20478;-71
2022/05/31 03:15:13;;;;;;;7.82;4.70;;;11.30;99.90;;;;;;2081559;28;20021;-71
2022/05/31 03:16:15;;;;;;;5.45;4.95;;;11.30;99.90;;;;;;2080478;28;20036;-71
2022/05/31 03:17:36;;;;;;;6.28;5.38;;;11.30;99.90;;;;;;2081172;28;20026;-71
2022/05/31 03:18:41;;;;;;;6.93;4.72;;;11.30;99.90;;;;;;2083621;28;20022;-71
2022/05/31 03:19:47;;;;;;;5.07;4.10;;;11.30;99.90;;;;;;2086854;28;20573;-71
2022/05/31 03:20:54;;;;;;;7.60;4.55;;;11.20;99.90;;;;;;2086124;28;20131;-71
2022/05/31 03:22:01;;;;;;;6.35;4.55;;;11.30;99.90;;;;;;2084486;28;20060;-71
2022/05/31 03:23:10;;;;;;;6.93;4.53;;;11.30;99.90;;;;;;2081213;28;20035;-71
2022/05/31 03:24:20;;;;;;;7.20;4.57;;;11.30;99.90;;;;;;2081701;28;20036;-71
2022/05/31 03:25:24;;;;;;;6.60;4.97;;;11.30;99.90;;;;;;2081660;28;20601;-71
2022/05/31 03:26:27;;;;;;;5.20;4.15;;;11.30;99.90;;;;;;2081056;28;20485;-71
2022/05/31 03:27:28;;;;;;;4.65;4.25;;;11.30;99.90;;;;;;2080810;28;20027;-71
2022/05/31 03:28:29;;;;;;;4.75;4.38;;;11.30;99.90;;;;;;2084195;28;20026;-71
2022/05/31 03:29:30;;;;;;;5.63;4.10;;;11.30;99.90;;;;;;2081562;28;20053;-71
2022/05/31 03:30:33;;;;;;;5.20;4.00;;;11.30;99.90;;;;;;2086234;28;20028;-71
2022/05/31 03:31:35;;;;;;;5.10;4.38;;;11.30;99.90;;;;;;2082900;28;20468;-71
2022/05/31 03:32:36;;;;;;;6.65;4.45;;;11.40;99.90;;;;;;2082078;28;20029;-71
2022/05/31 03:33:37;;;;;;;6.65;4.35;;;11.30;99.90;;;;;;2083758;28;20025;-71
2022/05/31 03:34:38;;;;;;;6.82;4.03;;;11.40;99.90;;;;;;2082737;28;20457;-71
2022/05/31 03:35:39;;;;;;;6.03;4.50;;;11.40;99.90;;;;;;2083774;28;20025;-71
2022/05/31 03:36:40;;;;;;;5.78;4.40;;;11.40;99.90;;;;;;2083729;28;20040;-71
2022/05/31 03:37:40;;;;;;;5.78;4.70;;;11.40;99.90;;;;;;2081569;28;20026;-71
2022/05/31 03:38:41;;;;;;;4.82;3.90;;;11.40;99.90;;;;;;2082140;28;20499;-71
2022/05/31 03:39:41;;;;;;;8.00;4.55;;;11.40;99.90;;;;;;2080294;28;20052;-71
2022/05/31 03:40:57;;;;;;;7.00;4.30;;;11.40;99.90;;;;;;2085483;28;20116;-71
2022/05/31 03:41:58;;;;;;;6.20;4.47;;;11.40;99.90;;;;;;2083584;28;20024;-71
2022/05/31 03:43:03;;;;;;;5.40;4.70;;;11.40;99.90;;;;;;2080951;28;20029;-71
2022/05/31 03:44:04;;;;;;;7.47;4.68;;;11.40;99.90;;;;;;2089499;28;20048;-71
2022/05/31 03:45:05;;;;;;;6.63;4.45;;;11.40;99.90;;;;;;2087206;28;20492;-71
2022/05/31 03:46:11;;;;;;;7.18;4.82;;;11.40;99.90;;;;;;2080941;28;20112;-71
2022/05/31 03:47:11;;;;;;;8.50;5.47;;;11.40;99.90;;;;;;2080545;28;20022;-71
2022/05/31 03:48:12;;;;;;;9.23;5.00;;;11.40;99.90;;;;;;2079812;28;20135;-71
2022/05/31 03:49:14;;;;;;;6.05;5.18;;;11.50;99.90;;;;;;2082486;28;20061;-71
2022/05/31 03:50:15;;;;;;;7.43;4.80;;;11.50;99.90;;;;;;2090327;28;20017;-71
2022/05/31 03:51:15;;;;;;;6.82;4.93;;;11.40;99.90;;;;;;2082147;28;20025;-71
2022/05/31 03:52:16;;;;;;;7.95;4.70;;;11.40;99.90;;;;;;2083250;28;20099;-71
2022/05/31 03:53:16;;;;;;;8.25;5.68;;;11.40;99.90;;;;;;2085481;28;20061;-71
2022/05/31 03:54:17;;;;;;;8.80;5.07;;;11.40;99.90;;;;;;2081600;28;20033;-71
2022/05/31 03:55:17;;;;;;;9.30;5.50;;;11.40;99.90;;;;;;2082352;28;20026;-71
2022/05/31 03:56:18;;;;;;;6.38;4.78;;;11.40;99.90;;;;;;2080670;28;20022;-71
2022/05/31 03:57:20;;;;;;;5.80;4.55;;;11.40;99.90;;;;;;2081008;28;20041;-71
2022/05/31 03:58:21;;;;;;;6.43;4.05;;;11.40;99.90;;;;;;2085394;28;20112;-71
2022/05/31 03:59:21;;;;;;;4.78;3.72;;;11.40;99.90;;;;;;2083306;28;20024;-71
2022/05/31 04:00:22;;;;;;;5.78;4.32;;;11.40;99.90;;;;;;2083448;28;20025;-72
2022/05/31 04:01:22;;;;;;;6.03;4.13;;;11.40;99.90;;;;;;2081984;28;20540;-71
2022/05/31 04:02:23;;;;;;;5.40;4.50;;;11.40;99.90;;;;;;2081783;28;20029;-71
2022/05/31 04:03:24;;;;;;;5.93;4.45;;;11.40;99.90;;;;;;2083834;28;20064;-71
2022/05/31 04:04:25;;;;;;;9.65;4.82;;;11.40;99.90;;;;;;2071642;28;20398;-71
2022/05/31 04:05:25;;;;;;;8.10;5.22;;;11.40;99.90;;;;;;2082641;28;20025;-71
2022/05/31 04:06:26;;;;;;;7.05;4.88;;;11.40;99.90;;;;;;2089391;28;20037;-71
2022/05/31 04:07:26;;;;;;;7.85;4.93;;;11.40;99.90;;;;;;2082473;28;20074;-71
2022/05/31 04:08:27;;;;;;;5.93;4.38;;;11.40;99.90;;;;;;2081083;28;20389;-71
2022/05/31 04:09:28;;;;;;;7.40;4.88;;;11.40;99.90;;;;;;2083816;28;20329;-71
2022/05/31 04:10:30;;;;;;;8.52;4.88;;;11.40;99.90;;;;;;2080723;28;20030;-71
2022/05/31 04:11:31;;;;;;;5.20;4.55;;;11.40;99.90;;;;;;2080335;28;20034;-71
2022/05/31 04:12:36;;;;;;;5.15;4.25;;;11.40;99.90;;;;;;2082906;28;20021;-71
2022/05/31 04:13:36;;;;;;;7.20;4.28;;;11.50;99.90;;;;;;2085747;28;20117;-71
2022/05/31 04:14:37;;;;;;;9.73;4.55;;;11.40;99.90;;;;;;2082966;28;20018;-71
2022/05/31 04:15:37;;;;;;;6.70;5.28;;;11.50;99.90;;;;;;2080309;28;20025;-71
2022/05/31 04:16:38;;;;;;;7.93;5.32;;;11.50;99.90;;;;;;2083773;28;20124;-71
2022/05/31 04:17:38;;;;;;;7.90;4.75;;;11.50;99.90;;;;;;2086218;28;20114;-71
2022/05/31 04:18:40;;;;;;;7.88;5.65;;;11.50;99.90;;;;;;2083774;28;20355;-71
2022/05/31 04:19:40;;;;;;;6.38;5.45;;;11.50;99.90;;;;;;2082516;28;20014;-71
2022/05/31 04:20:41;;;;;;;6.32;4.75;;;11.50;99.90;;;;;;2083327;28;20509;-71
2022/05/31 04:21:42;;;;;;;8.27;5.30;;;11.50;99.90;;;;;;2081225;28;20056;-71
2022/05/31 04:22:43;;;;;;;7.95;4.47;;;11.50;99.90;;;;;;2083822;28;20029;-71
2022/05/31 04:23:59;;;;;;;9.77;5.20;;;11.50;99.90;;;;;;2082394;28;20064;-71
2022/05/31 04:25:01;;;;;;;5.38;4.88;;;11.50;99.90;;;;;;2081596;28;20083;-71
2022/05/31 04:26:04;;;;;;;8.55;5.00;;;11.50;99.90;;;;;;2081894;28;20025;-71
2022/05/31 04:27:05;;;;;;;7.88;4.88;;;11.50;99.90;;;;;;2085040;28;20108;-71
2022/05/31 04:28:06;;;;;;;6.20;5.00;;;11.50;99.90;;;;;;2082472;28;20052;-71
2022/05/31 04:29:06;;;;;;;6.68;4.55;;;11.50;99.90;;;;;;2083398;28;20112;-71
2022/05/31 04:30:08;;;;;;;5.15;4.45;;;11.50;99.90;;;;;;2083481;28;20054;-71
2022/05/31 04:31:09;;;;;;;11.35;5.55;;;11.50;99.90;;;;;;2084186;28;20448;-71
2022/05/31 04:32:10;;;;;;;6.47;5.38;;;11.60;99.90;;;;;;2081968;28;20029;-71
2022/05/31 04:33:11;;;;;;;5.78;4.25;;;11.50;99.90;;;;;;2082594;28;20116;-71
2022/05/31 04:34:12;;;;;;;8.70;5.47;;;11.60;99.90;;;;;;2080940;28;20014;-71
2022/05/31 04:35:12;;;;;;;9.13;6.07;;;11.60;99.90;;;;;;2080107;28;20026;-71
2022/05/31 04:36:15;;;;;;;9.32;5.80;;;11.50;99.90;;;;;;2085018;28;20021;-71
2022/05/31 04:37:16;;;;;;;11.60;5.35;;;11.60;99.90;;;;;;2086858;28;20074;-71
2022/05/31 04:38:16;;;;;;;6.40;5.32;;;11.50;99.90;;;;;;2081116;28;20079;-71
2022/05/31 04:39:17;;;;;;;8.45;5.47;;;11.60;99.90;;;;;;2084985;28;20516;-71
2022/05/31 04:40:17;;;;;;;8.60;4.88;;;11.60;99.90;;;;;;2085447;28;20695;-71
2022/05/31 04:41:21;;;;;;;8.82;5.30;;;11.60;99.90;;;;;;2084160;28;20497;-71
2022/05/31 04:42:22;;;;;;;6.90;5.00;;;11.60;99.90;;;;;;2082879;28;20063;-71
2022/05/31 04:43:22;;;;;;;8.10;4.88;;;11.60;99.90;;;;;;2079628;28;20067;-71
2022/05/31 04:44:23;;;;;;;7.05;5.10;;;11.60;99.90;;;;;;2081524;28;20033;-71
2022/05/31 04:45:26;;;;;;;5.72;4.97;;;11.60;99.90;;;;;;2087691;28;20025;-71
2022/05/31 04:46:29;;;;;;;8.32;5.70;;;11.60;99.90;;;;;;2081920;28;20087;-71
2022/05/31 04:47:32;;;;;;;6.45;5.28;;;11.70;99.90;;;;;;2085192;28;20072;-72
2022/05/31 04:48:32;;;;;;;6.93;5.15;;;11.60;99.90;;;;;;2086415;28;20031;-71
2022/05/31 04:49:33;;;;;;;5.72;4.53;;;11.60;99.90;;;;;;2084872;28;20017;-71
2022/05/31 04:50:35;;;;;;;6.38;5.32;;;11.60;99.90;;;;;;2084020;28;20027;-71
2022/05/31 04:51:36;;;;;;;8.20;5.50;;;11.60;99.90;;;;;;2079757;28;20018;-71
2022/05/31 04:52:37;;;;;;;8.52;4.60;;;11.60;99.90;;;;;;2080959;28;20029;-71
2022/05/31 04:53:41;;;;;;;8.85;5.68;;;11.60;99.90;;;;;;2079806;28;20017;-71
2022/05/31 04:54:42;;;;;;;5.57;4.93;;;11.60;99.90;;;;;;2074764;28;20029;-71
2022/05/31 04:55:43;;;;;;;5.75;5.13;;;11.60;99.90;;;;;;2082701;28;20071;-71
2022/05/31 04:56:44;;;;;;;7.68;5.55;;;11.60;99.90;;;;;;2080480;28;20021;-72
2022/05/31 04:57:45;;;;;;;10.50;5.88;;;11.70;99.90;;;;;;2082249;28;20481;-71
2022/05/31 04:58:50;;;;;;;8.13;5.30;;;11.70;99.90;;;;;;2079946;28;20025;-71
2022/05/31 04:59:52;;;;;;;6.10;5.50;;;11.70;99.90;;;;;;2083862;28;20048;-71
2022/05/31 05:00:53;;;;;;;10.07;6.72;;;11.70;99.90;;;;;;2084352;28;20025;-71
2022/05/31 05:01:53;;;;;;;8.07;6.95;;;11.70;99.90;;;;;;2082762;28;20021;-71
2022/05/31 05:02:54;;;;;;;8.57;5.47;;;11.70;99.90;;;;;;2082730;28;20040;-71
2022/05/31 05:03:55;;;;;;;8.65;6.82;;;11.70;99.90;;;;;;2081863;28;20048;-71
2022/05/31 05:04:55;;;;;;;8.95;7.28;;;11.70;99.90;;;;;;2073859;28;20635;-71
2022/05/31 05:06:00;;;;;;;8.70;7.57;;;11.80;99.90;;;;;;2086332;28;20419;-71
2022/05/31 05:07:01;;;;;;;11.82;7.97;;;11.70;99.90;;;;;;2080162;28;20130;-71
2022/05/31 05:08:02;;;;;;;7.95;6.57;;;11.70;99.90;;;;;;2089847;28;20024;-71
2022/05/31 05:09:03;;;;;;;8.63;7.57;;;11.70;99.90;;;;;;2083502;28;20047;-71
2022/05/31 05:10:08;;;;;;;10.98;7.97;;;11.70;99.90;;;;;;2085072;28;20025;-71
2022/05/31 05:11:11;;;;;;;9.05;6.85;;;11.80;99.90;;;;;;2085240;28;20481;-71
2022/05/31 05:12:12;;;;;;;10.10;7.93;;;11.70;99.90;;;;;;2082620;28;20053;-71
2022/05/31 05:13:13;;;;;;;9.90;7.28;;;11.80;99.90;;;;;;2087202;28;20025;-71
2022/05/31 05:14:13;;;;;;;10.15;7.63;;;11.80;99.90;;;;;;2082422;28;20053;-71
2022/05/31 05:15:14;;;;;;;11.48;8.00;;;11.80;99.90;;;;;;2084559;28;20029;-71
2022/05/31 05:16:16;;;;;;;8.93;7.28;;;11.80;99.90;;;;;;2085433;28;20044;-71
2022/05/31 05:17:17;;;;;;;10.52;6.82;;;11.80;99.90;;;;;;2082518;28;20029;-71
2022/05/31 05:18:17;;;;;;;8.38;6.80;;;11.80;99.90;;;;;;2084048;28;20032;-71
2022/05/31 05:19:18;;;;;;;9.63;7.43;;;11.80;99.90;;;;;;2083493;28;20098;-71
2022/05/31 05:20:18;;;;;;;9.48;8.40;;;11.80;99.90;;;;;;2084068;28;20025;-71
2022/05/31 05:21:19;;;;;;;9.73;8.05;;;11.90;99.90;;;;;;2082938;28;20106;-71
2022/05/31 05:22:20;;;;;;;13.15;8.38;;;11.90;99.90;;;;;;2084377;28;20017;-72
2022/05/31 05:23:20;;;;;;;9.35;8.13;;;11.90;99.90;;;;;;2081161;28;20032;-71
2022/05/31 05:24:21;;;;;;;6.82;6.07;;;11.90;99.90;;;;;;2083975;28;20033;-71
2022/05/31 05:25:21;;;;;;;10.63;7.38;;;11.90;99.90;;;;;;2083490;28;20561;-71
2022/05/31 05:26:22;;;;;;;9.82;7.28;;;11.90;99.90;;;;;;2084212;28;20029;-71
2022/05/31 05:27:22;;;;;;;9.88;7.80;;;12.00;99.90;;;;;;2081031;28;20112;-71
2022/05/31 05:31:02;;;;;;;12.93;8.13;;;12.00;99.90;;;;;;2084099;28;20128;-70